createdAt,value
2019-05-25T00:02:03.750Z,94.70
2019-05-25T00:04:35.131Z,94.60
2019-05-25T00:07:07.911Z,94.40
2019-05-25T00:09:40.964Z,94.50
2019-05-25T00:12:13.583Z,94.50
2019-05-25T00:14:46.650Z,94.80
2019-05-25T00:17:20.019Z,94.60
2019-05-25T00:19:52.507Z,94.50
2019-05-25T00:22:24.317Z,95.10
2019-05-25T00:24:56.719Z,94.70
2019-05-25T00:27:29.306Z,94.60
2019-05-25T00:30:02.121Z,94.50
2019-05-25T00:32:36.717Z,94.50
2019-05-25T00:35:09.956Z,94.50
2019-05-25T00:37:43.299Z,94.40
2019-05-25T00:40:16.149Z,94.50
2019-05-25T00:42:49.209Z,94.60
2019-05-25T00:45:31.708Z,94.40
2019-05-25T00:48:05.303Z,94.40
2019-05-25T00:50:38.420Z,94.40
2019-05-25T00:53:11.106Z,94.40
2019-05-25T00:55:43.989Z,94.40
2019-05-25T00:58:16.391Z,94.40
2019-05-25T01:00:49.022Z,94.40
2019-05-25T01:03:21.500Z,94.50
2019-05-25T01:05:54.478Z,94.40
2019-05-25T01:08:27.278Z,94.10
2019-05-25T01:10:58.589Z,94.10
2019-05-25T01:13:31.316Z,94.00
2019-05-25T01:16:04.068Z,94.10
2019-05-25T01:18:36.624Z,93.80
2019-05-25T01:21:09.740Z,93.70
2019-05-25T01:23:42.378Z,93.70
2019-05-25T01:26:15.631Z,93.40
2019-05-25T01:28:48.335Z,93.60
2019-05-25T01:31:21.297Z,93.40
2019-05-25T01:33:54.804Z,93.50
2019-05-25T01:36:37.766Z,93.70
2019-05-25T01:39:10.613Z,93.70
2019-05-25T01:41:44.868Z,93.90
2019-05-25T01:44:17.435Z,93.60
2019-05-25T01:46:50.338Z,93.70
2019-05-25T01:49:22.804Z,94.60
2019-05-25T01:51:55.416Z,94.10
2019-05-25T01:54:27.639Z,93.60
2019-05-25T01:57:00.585Z,93.80
2019-05-25T01:59:33.717Z,93.40
2019-05-25T02:02:06.699Z,93.00
2019-05-25T02:04:39.371Z,93.10
2019-05-25T02:07:12.786Z,93.00
2019-05-25T02:09:45.341Z,92.90
2019-05-25T02:12:17.647Z,92.70
2019-05-25T02:14:50.227Z,92.50
2019-05-25T02:17:22.857Z,92.10
2019-05-25T02:20:02.088Z,92.00
2019-05-25T02:22:37.279Z,91.70
2019-05-25T02:25:17.563Z,91.20
2019-05-25T02:27:44.182Z,91.10
2019-05-25T02:30:19.485Z,90.80
2019-05-25T02:32:52.551Z,90.60
2019-05-25T02:35:28.183Z,90.50
2019-05-25T02:38:00.514Z,90.30
2019-05-25T02:40:33.112Z,90.10
2019-05-25T02:43:08.311Z,89.90
2019-05-25T02:45:41.423Z,88.80
2019-05-25T02:48:14.585Z,89.30
2019-05-25T02:50:46.341Z,89.00
2019-05-25T02:53:19.099Z,87.90
2019-05-25T02:55:51.436Z,87.70
2019-05-25T02:58:24.568Z,88.00
2019-05-25T03:00:59.372Z,87.40
2019-05-25T03:03:32.300Z,86.80
2019-05-25T03:06:08.036Z,87.50
2019-05-25T03:08:41.654Z,87.90
2019-05-25T03:11:14.145Z,87.10
2019-05-25T03:13:48.121Z,87.40
2019-05-25T03:16:20.623Z,87.70
2019-05-25T03:18:53.797Z,86.60
2019-05-25T03:21:26.446Z,86.90
2019-05-25T03:23:59.185Z,87.20
2019-05-25T03:26:31.617Z,86.70
2019-05-25T03:29:04.569Z,86.80
2019-05-25T03:31:41.179Z,85.90
2019-05-25T03:34:16.305Z,86.60
2019-05-25T03:36:49.468Z,84.90
2019-05-25T03:39:25.979Z,85.60
2019-05-25T03:41:58.451Z,85.10
2019-05-25T03:44:30.376Z,84.60
2019-05-25T03:47:02.881Z,83.70
2019-05-25T03:49:35.807Z,83.30
2019-05-25T03:52:08.861Z,84.60
2019-05-25T03:54:41.830Z,83.60
2019-05-25T03:57:15.621Z,83.70
2019-05-25T03:59:48.440Z,83.80
2019-05-25T04:02:21.182Z,82.80
2019-05-25T04:04:56.649Z,84.40
2019-05-25T04:07:29.727Z,83.00
2019-05-25T04:10:02.905Z,82.50
2019-05-25T04:12:35.457Z,83.30
2019-05-25T04:15:09.436Z,83.00
2019-05-25T04:17:42.283Z,82.70
2019-05-25T04:20:15.292Z,82.50
2019-05-25T04:22:48.019Z,81.80
2019-05-25T04:25:20.971Z,82.90
2019-05-25T04:27:52.314Z,81.80
2019-05-25T04:30:25.384Z,81.90
2019-05-25T04:32:57.878Z,80.30
2019-05-25T04:35:29.552Z,82.00
2019-05-25T04:38:02.016Z,80.60
2019-05-25T04:40:37.869Z,81.40
2019-05-25T04:43:11.289Z,82.30
2019-05-25T04:45:44.372Z,82.70
2019-05-25T04:48:31.075Z,82.40
2019-05-25T04:51:04.027Z,82.50
2019-05-25T04:53:37.055Z,82.20
2019-05-25T04:56:09.785Z,83.10
2019-05-25T04:58:42.769Z,82.10
2019-05-25T05:01:15.807Z,82.80
2019-05-25T05:03:49.315Z,83.20
2019-05-25T05:06:21.995Z,83.70
2019-05-25T05:08:54.566Z,83.90
2019-05-25T05:11:26.169Z,84.60
2019-05-25T05:13:59.642Z,84.60
2019-05-25T05:16:32.657Z,82.80
2019-05-25T05:19:05.487Z,84.70
2019-05-25T05:21:37.446Z,84.70
2019-05-25T05:24:11.661Z,84.90
2019-05-25T05:26:55.812Z,84.60
2019-05-25T05:29:21.830Z,83.20
2019-05-25T05:31:54.695Z,77.30
2019-05-25T05:34:27.503Z,76.30
2019-05-25T05:37:02.254Z,81.80
2019-05-25T05:39:54.810Z,82.10
2019-05-25T05:42:29.431Z,82.10
2019-05-25T05:45:04.147Z,82.00
2019-05-25T05:47:38.445Z,74.00
2019-05-25T05:50:12.579Z,74.60
2019-05-25T05:52:45.482Z,79.70
2019-05-25T05:55:20.360Z,79.50
2019-05-25T05:57:54.125Z,72.20
2019-05-25T06:00:27.153Z,76.90
2019-05-25T06:02:59.726Z,75.60
2019-05-25T06:05:32.466Z,76.40
2019-05-25T06:08:06.521Z,72.70
2019-05-25T06:10:39.446Z,70.50
2019-05-25T06:13:12.327Z,71.10
2019-05-25T06:15:43.991Z,70.90
2019-05-25T06:18:18.471Z,70.40
2019-05-25T06:20:51.642Z,70.70
2019-05-25T06:23:25.506Z,71.20
2019-05-25T06:25:57.866Z,72.70
2019-05-25T06:28:30.403Z,75.90
2019-05-25T06:31:02.729Z,71.10
2019-05-25T06:33:35.274Z,67.90
2019-05-25T06:36:07.663Z,75.80
2019-05-25T06:38:40.426Z,71.70
2019-05-25T06:41:13.011Z,73.70
2019-05-25T06:43:47.082Z,70.20
2019-05-25T06:46:19.722Z,67.90
2019-05-25T06:48:53.109Z,67.60
2019-05-25T06:51:26.293Z,64.50
2019-05-25T06:53:59.238Z,73.50
2019-05-25T06:56:32.090Z,66.50
2019-05-25T06:59:05.033Z,66.00
2019-05-25T07:01:37.750Z,71.90
2019-05-25T07:04:09.833Z,72.70
2019-05-25T07:06:42.699Z,66.10
2019-05-25T07:09:16.085Z,69.90
2019-05-25T07:11:50.627Z,74.30
2019-05-25T07:14:23.657Z,68.30
2019-05-25T07:16:56.543Z,73.70
2019-05-25T07:19:29.785Z,65.00
2019-05-25T07:22:02.928Z,61.60
2019-05-25T07:24:35.384Z,66.60
2019-05-25T07:27:09.881Z,61.00
2019-05-25T07:29:42.751Z,69.90
2019-05-25T07:32:18.058Z,59.90
2019-05-25T07:34:51.384Z,69.80
2019-05-25T07:37:24.695Z,58.30
2019-05-25T07:39:57.037Z,58.00
2019-05-25T07:42:29.697Z,58.30
2019-05-25T07:45:02.685Z,65.50
2019-05-25T07:47:34.619Z,59.10
2019-05-25T07:50:10.402Z,56.20
2019-05-25T07:52:43.576Z,65.50
2019-05-25T07:55:16.179Z,57.10
2019-05-25T07:57:49.203Z,65.40
2019-05-25T08:00:21.832Z,66.70
2019-05-25T08:02:57.357Z,57.90
2019-05-25T08:05:29.624Z,54.60
2019-05-25T08:08:03.279Z,54.70
2019-05-25T08:10:36.228Z,63.00
2019-05-25T08:13:09.692Z,62.00
2019-05-25T08:15:42.455Z,57.70
2019-05-25T08:18:13.988Z,59.00
2019-05-25T08:20:47.703Z,58.30
2019-05-25T08:23:20.765Z,56.80
2019-05-25T08:25:53.619Z,58.80
2019-05-25T08:28:32.797Z,59.00
2019-05-25T08:31:01.429Z,62.50
2019-05-25T08:33:35.353Z,63.40
2019-05-25T08:36:07.782Z,58.30
2019-05-25T08:38:39.287Z,60.80
2019-05-25T08:41:11.629Z,59.70
2019-05-25T08:43:44.551Z,62.90
2019-05-25T08:46:17.059Z,64.10
2019-05-25T08:48:50.041Z,66.90
2019-05-25T08:51:21.396Z,62.00
2019-05-25T08:53:53.855Z,65.90
2019-05-25T08:56:26.917Z,68.60
2019-05-25T08:59:02.275Z,68.50
2019-05-25T09:01:34.740Z,68.10
2019-05-25T09:04:08.692Z,69.70
2019-05-25T09:06:43.016Z,68.30
2019-05-25T09:12:10.658Z,72.20
2019-05-25T09:14:44.509Z,71.50
2019-05-25T09:17:17.690Z,72.30
2019-05-25T09:19:52.852Z,73.10
2019-05-25T09:22:26.627Z,73.80
2019-05-25T09:25:00.166Z,73.90
2019-05-25T09:27:32.974Z,73.90
2019-05-25T09:30:08.883Z,74.30
2019-05-25T09:32:41.926Z,74.90
2019-05-25T09:35:15.750Z,75.10
2019-05-25T09:37:48.060Z,74.30
2019-05-25T09:40:20.778Z,75.50
2019-05-25T09:42:52.334Z,75.80
2019-05-25T09:45:24.644Z,75.10
2019-05-25T09:47:57.007Z,76.60
2019-05-25T09:50:28.740Z,74.50
2019-05-25T09:53:01.131Z,76.10
2019-05-25T09:55:32.815Z,77.20
2019-05-25T09:58:05.549Z,77.20
2019-05-25T10:00:40.263Z,76.10
2019-05-25T10:03:13.441Z,77.40
2019-05-25T10:05:47.517Z,77.40
2019-05-25T10:08:21.141Z,77.10
2019-05-25T10:10:55.212Z,76.90
2019-05-25T10:13:27.793Z,78.80
2019-05-25T10:16:00.789Z,78.90
2019-05-25T10:18:32.989Z,79.70
2019-05-25T10:21:06.760Z,80.00
2019-05-25T10:23:38.847Z,80.00
2019-05-25T10:26:11.365Z,81.30
2019-05-25T10:28:45.089Z,81.70
2019-05-25T10:31:17.867Z,81.50
2019-05-25T10:33:49.009Z,80.50
2019-05-25T10:36:22.721Z,81.70
2019-05-25T10:38:55.255Z,82.10
2019-05-25T10:41:36.797Z,81.80
2019-05-25T10:44:11.961Z,81.60
2019-05-25T10:46:45.282Z,82.10
2019-05-25T10:49:18.891Z,82.40
2019-05-25T10:51:53.203Z,82.50
2019-05-25T10:54:25.950Z,83.00
2019-05-25T10:56:59.048Z,82.60
2019-05-25T10:59:31.664Z,83.30
2019-05-25T11:02:06.608Z,82.70
2019-05-25T11:04:39.651Z,83.30
2019-05-25T11:07:12.572Z,83.20
2019-05-25T11:09:45.826Z,83.40
2019-05-25T11:12:18.256Z,83.20
2019-05-25T11:14:50.589Z,83.90
2019-05-25T11:17:23.569Z,84.10
2019-05-25T11:19:56.589Z,84.60
2019-05-25T11:22:29.646Z,84.50
2019-05-25T11:25:01.934Z,84.60
2019-05-25T11:27:34.456Z,84.70
2019-05-25T11:30:10.015Z,85.40
2019-05-25T11:32:43.720Z,85.80
2019-05-25T11:35:17.559Z,85.60
2019-05-25T11:37:50.407Z,85.30
2019-05-25T11:40:24.250Z,85.10
2019-05-25T11:42:57.676Z,85.30
2019-05-25T11:45:31.079Z,85.00
2019-05-25T11:48:04.543Z,84.80
2019-05-25T11:50:38.475Z,84.60
2019-05-25T11:53:11.879Z,84.60
2019-05-25T11:55:44.136Z,84.30
2019-05-25T11:58:16.865Z,84.20
2019-05-25T12:00:51.558Z,84.50
2019-05-25T12:03:22.648Z,84.80
2019-05-25T12:05:54.924Z,84.80
2019-05-25T12:08:26.639Z,85.10
2019-05-25T12:10:58.855Z,85.50
2019-05-25T12:13:32.188Z,85.40
2019-05-25T12:16:05.089Z,85.70
2019-05-25T12:18:36.520Z,85.60
2019-05-25T12:21:08.972Z,85.90
2019-05-25T12:23:45.231Z,85.80
2019-05-25T12:26:18.004Z,86.00
2019-05-25T12:28:52.767Z,85.90
2019-05-25T12:31:25.316Z,87.00
2019-05-25T12:33:58.017Z,86.30
2019-05-25T12:36:31.731Z,86.60
2019-05-25T12:39:06.226Z,86.70
2019-05-25T12:41:39.943Z,86.70
2019-05-25T12:44:14.757Z,86.70
2019-05-25T12:46:47.099Z,86.80
2019-05-25T12:49:26.220Z,86.80
2019-05-25T12:52:00.239Z,87.00
2019-05-25T12:54:33.853Z,86.80
2019-05-25T12:57:06.460Z,86.50
2019-05-25T12:59:43.618Z,86.80
2019-05-25T13:02:17.162Z,86.50
2019-05-25T13:04:50.394Z,86.90
2019-05-25T13:07:23.075Z,86.90
2019-05-25T13:09:57.632Z,86.80
2019-05-25T13:12:30.177Z,87.30
2019-05-25T13:15:04.298Z,87.10
2019-05-25T13:17:38.300Z,87.60
2019-05-25T13:20:10.986Z,87.40
2019-05-25T13:22:43.523Z,87.80
2019-05-25T13:25:16.611Z,87.90
2019-05-25T13:27:49.079Z,87.50
2019-05-25T13:30:20.768Z,87.90
2019-05-25T13:32:53.101Z,88.10
2019-05-25T13:35:26.177Z,88.10
2019-05-25T13:37:57.462Z,88.30
2019-05-25T13:40:30.968Z,88.10
2019-05-25T13:43:03.465Z,88.60
2019-05-25T13:45:36.285Z,88.30
2019-05-25T13:48:07.681Z,88.30
2019-05-25T13:50:41.066Z,88.60
2019-05-25T13:53:13.462Z,89.10
2019-05-25T13:55:46.208Z,89.30
2019-05-25T13:58:18.229Z,88.60
2019-05-25T14:00:50.936Z,89.00
2019-05-25T14:03:25.339Z,89.10
2019-05-25T14:05:58.093Z,89.30
2019-05-25T14:08:31.257Z,89.30
2019-05-25T14:11:04.157Z,89.30
2019-05-25T14:13:38.407Z,89.70
2019-05-25T14:16:11.585Z,89.70
2019-05-25T14:18:45.233Z,89.90
2019-05-25T14:21:17.920Z,90.00
2019-05-25T14:23:50.722Z,90.00
2019-05-25T14:26:25.711Z,90.10
2019-05-25T14:29:01.746Z,90.00
2019-05-25T14:31:44.927Z,90.20
2019-05-25T14:34:10.298Z,90.30
2019-05-25T14:36:42.322Z,90.80
2019-05-25T14:39:17.193Z,90.30
2019-05-25T14:41:51.391Z,90.40
2019-05-25T14:44:24.713Z,90.30
2019-05-25T14:46:58.452Z,90.40
2019-05-25T14:49:36.827Z,90.80
2019-05-25T14:52:12.174Z,90.50
2019-05-25T14:54:45.231Z,90.80
2019-05-25T14:57:17.262Z,91.10
2019-05-25T14:59:50.210Z,90.50
2019-05-25T15:02:23.131Z,90.40
2019-05-25T15:04:54.944Z,91.20
2019-05-25T15:07:27.844Z,90.70
2019-05-25T15:10:00.478Z,90.70
2019-05-25T15:12:33.025Z,90.90
2019-05-25T15:15:06.564Z,91.80
2019-05-25T15:17:40.987Z,91.20
2019-05-25T15:20:13.460Z,94.00
2019-05-25T15:22:47.049Z,94.30
2019-05-25T15:25:20.814Z,91.60
2019-05-25T15:27:53.777Z,91.70
2019-05-25T15:30:26.819Z,91.30
2019-05-25T15:33:01.414Z,94.20
2019-05-25T15:35:35.192Z,91.80
2019-05-25T15:38:06.661Z,93.00
2019-05-25T15:40:39.973Z,92.10
2019-05-25T15:43:13.213Z,93.60
2019-05-25T15:45:45.911Z,91.50
2019-05-25T15:48:21.185Z,91.50
2019-05-25T15:50:53.764Z,91.60
2019-05-25T15:53:26.492Z,92.70
2019-05-25T15:55:59.831Z,91.60
2019-05-25T15:58:45.432Z,91.70
2019-05-25T16:01:18.567Z,91.70
2019-05-25T16:04:11.504Z,91.70
2019-05-25T16:06:47.718Z,92.90
2019-05-25T16:09:20.707Z,91.70
2019-05-25T16:11:54.299Z,94.00
2019-05-25T16:14:27.396Z,92.00
2019-05-25T16:17:00.273Z,91.80
2019-05-25T16:19:35.726Z,91.90
2019-05-25T16:22:09.403Z,93.40
2019-05-25T16:24:47.073Z,92.50
2019-05-25T16:27:19.753Z,91.60
2019-05-25T16:29:53.813Z,94.90
2019-05-25T16:32:26.998Z,92.10
2019-05-25T16:35:00.439Z,91.90
2019-05-25T16:37:34.400Z,92.00
2019-05-25T16:40:08.485Z,91.90
2019-05-25T16:42:41.383Z,91.70
2019-05-25T16:45:12.720Z,91.90
2019-05-25T16:47:45.487Z,93.00
2019-05-25T16:50:17.003Z,92.60
2019-05-25T16:52:49.544Z,92.50
2019-05-25T16:55:20.938Z,95.80
2019-05-25T16:57:53.468Z,92.50
2019-05-25T17:00:30.509Z,92.40
2019-05-25T17:03:03.339Z,92.60
2019-05-25T17:05:36.343Z,92.30
2019-05-25T17:08:08.916Z,92.60
2019-05-25T17:10:41.321Z,96.10
2019-05-25T17:13:13.708Z,93.70
2019-05-25T17:15:46.366Z,92.90
2019-05-25T17:18:19.386Z,96.80
2019-05-25T17:20:52.275Z,93.40
2019-05-25T17:23:24.060Z,93.30
2019-05-25T17:25:56.773Z,93.70
2019-05-25T17:28:29.626Z,93.20
2019-05-25T17:31:02.892Z,96.10
2019-05-25T17:33:45.375Z,93.50
2019-05-25T17:36:12.803Z,93.20
2019-05-25T17:38:42.975Z,93.30
2019-05-25T17:41:15.705Z,98.10
2019-05-25T17:43:48.449Z,93.50
2019-05-25T17:46:21.475Z,93.30
2019-05-25T17:48:52.803Z,93.60
2019-05-25T17:51:26.138Z,93.10
2019-05-25T17:53:58.665Z,93.10
2019-05-25T17:56:31.649Z,93.60
2019-05-25T17:59:02.977Z,93.50
2019-05-25T18:01:35.828Z,92.90
2019-05-25T18:04:08.465Z,93.20
2019-05-25T18:06:39.879Z,93.20
2019-05-25T18:09:12.756Z,93.30
2019-05-25T18:11:45.325Z,92.80
2019-05-25T18:14:18.010Z,93.10
2019-05-25T18:16:50.882Z,92.90
2019-05-25T18:19:23.273Z,94.40
2019-05-25T18:21:58.952Z,96.40
2019-05-25T18:24:30.570Z,93.80
2019-05-25T18:27:04.203Z,95.50
2019-05-25T18:29:38.858Z,93.50
2019-05-25T18:32:11.270Z,93.20
2019-05-25T18:34:43.860Z,93.70
2019-05-25T18:37:16.783Z,93.40
2019-05-25T18:39:49.106Z,93.60
2019-05-25T18:42:21.779Z,93.20
2019-05-25T18:44:54.167Z,93.70
2019-05-25T18:47:26.636Z,93.30
2019-05-25T18:49:59.124Z,96.10
2019-05-25T18:52:32.397Z,93.70
2019-05-25T18:55:06.236Z,93.60
2019-05-25T18:57:40.389Z,93.60
2019-05-25T19:00:13.306Z,93.60
2019-05-25T19:02:46.261Z,95.50
2019-05-25T19:05:18.689Z,94.20
2019-05-25T19:07:51.504Z,94.30
2019-05-25T19:10:24.037Z,96.40
2019-05-25T19:12:56.611Z,94.60
2019-05-25T19:15:28.414Z,94.50
2019-05-25T19:18:01.062Z,96.20
2019-05-25T19:20:34.267Z,97.10
2019-05-25T19:23:05.727Z,95.20
2019-05-25T19:25:38.224Z,94.70
2019-05-25T19:28:10.924Z,94.30
2019-05-25T19:30:43.741Z,94.30
2019-05-25T19:33:16.148Z,95.20
2019-05-25T19:35:49.188Z,95.10
2019-05-25T19:38:22.908Z,96.60
2019-05-25T19:40:55.887Z,95.60
2019-05-25T19:43:28.443Z,96.60
2019-05-25T19:46:00.065Z,95.90
2019-05-25T19:48:32.730Z,94.40
2019-05-25T19:51:04.380Z,98.20
2019-05-25T19:53:37.879Z,98.70
2019-05-25T19:56:10.773Z,98.10
2019-05-25T19:58:42.137Z,95.40
2019-05-25T20:01:14.895Z,94.80
2019-05-25T20:03:46.488Z,94.90
2019-05-25T20:06:19.493Z,94.50
2019-05-25T20:08:50.636Z,94.40
2019-05-25T20:11:23.552Z,97.70
2019-05-25T20:14:30.900Z,95.00
2019-05-25T20:17:04.014Z,95.20
2019-05-25T20:19:36.391Z,96.00
2019-05-25T20:22:09.333Z,97.50
2019-05-25T20:24:41.851Z,95.00
2019-05-25T20:27:13.363Z,94.60
2019-05-25T20:29:45.648Z,97.30
2019-05-25T20:32:18.306Z,97.80
2019-05-25T20:34:51.087Z,99.20
2019-05-25T20:37:23.979Z,95.30
2019-05-25T20:39:57.583Z,95.10
2019-05-25T20:42:30.359Z,94.80
2019-05-25T20:45:02.682Z,94.80
2019-05-25T20:47:35.194Z,96.00
2019-05-25T20:50:11.561Z,95.20
2019-05-25T20:52:44.451Z,98.80
2019-05-25T20:55:16.857Z,95.10
2019-05-25T20:57:49.966Z,97.30
2019-05-25T21:00:24.305Z,95.50
2019-05-25T21:03:05.822Z,94.90
2019-05-25T21:05:31.089Z,97.90
2019-05-25T21:08:03.889Z,98.20
2019-05-25T21:10:36.999Z,97.70
2019-05-25T21:13:08.930Z,99.00
2019-05-25T21:15:41.946Z,98.60
2019-05-25T21:18:15.217Z,95.70
2019-05-25T21:20:47.822Z,95.20
2019-05-25T21:23:20.749Z,95.10
2019-05-25T21:25:53.232Z,99.10
2019-05-25T21:28:26.075Z,95.40
2019-05-25T21:30:57.674Z,98.60
2019-05-25T21:33:30.514Z,95.30
2019-05-25T21:36:08.657Z,96.70
2019-05-25T21:38:37.438Z,98.40
2019-05-25T21:41:10.318Z,97.40
2019-05-25T21:43:42.688Z,95.20
2019-05-25T21:46:15.247Z,95.40
2019-05-25T21:48:47.637Z,95.40
2019-05-25T21:51:20.264Z,95.80
2019-05-25T21:53:51.782Z,96.00
2019-05-25T21:56:24.082Z,97.40
2019-05-25T21:58:56.520Z,98.80
2019-05-25T22:01:29.137Z,97.30
2019-05-25T22:04:01.724Z,95.00
2019-05-25T22:06:34.229Z,98.10
2019-05-25T22:09:08.507Z,96.40
2019-05-25T22:11:41.403Z,97.40
2019-05-25T22:14:14.063Z,97.10
2019-05-25T22:16:47.614Z,97.20
2019-05-25T22:19:20.897Z,95.20
2019-05-25T22:21:53.567Z,96.30
2019-05-25T22:24:26.727Z,96.40
2019-05-25T22:27:01.663Z,97.20
2019-05-25T22:29:34.328Z,98.40
2019-05-25T22:32:06.101Z,99.70
2019-05-25T22:34:38.735Z,96.40
2019-05-25T22:37:11.698Z,97.30
2019-05-25T22:39:44.586Z,99.30
2019-05-25T22:42:17.529Z,95.80
2019-05-25T22:44:50.159Z,99.10
2019-05-25T22:47:23.803Z,95.70
2019-05-25T22:49:56.989Z,95.90
2019-05-25T22:52:29.175Z,99.80
2019-05-25T22:55:01.994Z,96.30
2019-05-25T22:57:34.744Z,99.20
2019-05-25T23:00:11.769Z,99.50
2019-05-25T23:02:45.061Z,99.40
2019-05-25T23:05:18.044Z,96.40
2019-05-25T23:07:51.783Z,97.30
2019-05-25T23:10:24.706Z,95.70
2019-05-25T23:12:57.176Z,95.80
2019-05-25T23:15:28.831Z,98.70
2019-05-25T23:18:01.413Z,96.10
2019-05-25T23:20:36.407Z,95.50
2019-05-25T23:23:07.489Z,97.70
2019-05-25T23:25:39.867Z,99.00
2019-05-25T23:28:19.751Z,95.50
2019-05-25T23:30:52.427Z,95.40
2019-05-25T23:33:25.454Z,95.40
2019-05-25T23:35:57.944Z,95.60
2019-05-25T23:38:30.320Z,95.70
2019-05-25T23:41:03.351Z,95.20
2019-05-25T23:43:35.656Z,95.20
2019-05-25T23:46:08.056Z,95.00
2019-05-25T23:48:40.515Z,94.90
2019-05-25T23:51:13.456Z,96.70
2019-05-25T23:53:46.372Z,94.90
2019-05-25T23:56:19.105Z,96.90
2019-05-25T23:58:52.639Z,95.30
